Time;durP1;ratioP1;P1;durP2;ratioP2;P2;SDS_P1;SDS_P2;PMS_P1;PMS_P2;Temp;Humidity;BMP_temperature;BMP_pressure;BME280_temperature;BME280_humidity;BME280_pressure;Samples;Min_cycle;Max_cycle;Signal;HPM_P1;HPM_P2
2022/04/28 04:42:41;;;;;;;;;;;;;;;10.20;100.00;98926.25;5269008;23;19969;-69
2022/04/28 04:45:09;;;;;;;;;;;;;;;10.41;100.00;98934.94;4865448;29;19980;-70
2022/04/28 04:47:55;;;;;;;;;;;;;;;10.61;100.00;98929.97;4880773;29;19962;-70
2022/04/28 04:50:40;;;;;;;;;;;;;;;10.91;100.00;98921.47;4867666;29;19952;-70
2022/04/28 04:53:15;;;;;;;;;;;;;;;11.17;100.00;98933.28;4864983;29;19964;-69
2022/04/28 04:55:42;;;;;;;;;;;;;;;11.63;100.00;98938.47;4867160;29;19952;-69
2022/04/28 04:58:10;;;;;;;;;;;;;;;12.04;100.00;98942.78;4866675;29;19959;-70
2022/04/28 05:00:37;;;;;;;;;;;;;;;12.72;100.00;98946.66;4864941;29;19965;-70
2022/04/28 05:03:19;;;;;;;;;;;;;;;13.22;100.00;98948.41;4882088;29;19959;-70
2022/04/28 05:05:55;;;;;;;;;;;;;;;13.91;100.00;98945.97;4881669;29;19952;-70
2022/04/28 05:08:32;;;;;;;;;;;;;;;14.30;100.00;98955.16;4858265;29;19948;-70
2022/04/28 05:11:04;;;;;;;;;;;;;;;14.80;100.00;98957.75;4872652;29;19957;-70
2022/04/28 05:13:32;;;;;;;;;;;;;;;15.03;100.00;98958.84;4852491;29;19950;-70
2022/04/28 05:16:03;;;;;;;;;;;;;;;15.84;100.00;98963.06;4860007;29;19959;-71
2022/04/28 05:18:50;;;;;;;;;;;;;;;15.51;100.00;98955.28;4868310;29;20250;-70
2022/04/28 05:21:39;;;;;;;;;;;;;;;15.48;100.00;98951.28;4868339;29;19966;-71
2022/04/28 05:24:39;;;;;;;;;;;;;;;15.31;100.00;98963.47;4880782;29;19947;-70
2022/04/28 05:27:25;;;;;;;;;;;;;;;15.44;100.00;98960.97;4897985;29;19953;-70
2022/04/28 05:29:53;;;;;;;;;;;;;;;16.24;100.00;98965.06;4893610;29;19949;-71
2022/04/28 05:32:20;;;;;;;;;;;;;;;16.17;100.00;98967.97;4886088;29;19955;-70
2022/04/28 05:34:58;;;;;;;;;;;;;;;16.99;100.00;98977.09;4869803;29;19956;-71
2022/04/28 05:37:25;;;;;;;;;;;;;;;17.66;100.00;98978.13;4870148;29;19953;-70
2022/04/28 05:39:53;;;;;;;;;;;;;;;18.23;100.00;98977.97;4886076;29;19950;-70
2022/04/28 05:42:20;;;;;;;;;;;;;;;18.95;99.30;98987.47;4869534;29;20261;-69
2022/04/28 05:47:33;;;;;;;;;;;;;;;18.61;97.17;98989.81;4883394;29;20336;-70
2022/04/28 05:50:01;;;;;;;;;;;;;;;19.11;97.75;98993.19;4868740;29;20328;-70
2022/04/28 05:52:29;;;;;;;;;;;;;;;19.22;95.84;98993.75;4883566;29;19947;-70
2022/04/28 05:54:57;;;;;;;;;;;;;;;18.65;97.14;98999.03;4869874;29;20262;-70
2022/04/28 05:57:24;;;;;;;;;;;;;;;19.19;95.25;98991.00;4870225;29;19955;-70
2022/04/28 05:59:51;;;;;;;;;;;;;;;18.84;97.16;98998.22;4870848;29;19976;-70
2022/04/28 06:02:29;;;;;;;;;;;;;;;17.43;100.00;99007.16;4894583;29;19963;-69
2022/04/28 06:04:57;;;;;;;;;;;;;;;17.62;100.00;99012.16;4870409;29;19966;-70
2022/04/28 06:07:25;;;;;;;;;;;;;;;17.42;100.00;99010.41;4856957;29;19954;-70
2022/04/28 06:10:10;;;;;;;;;;;;;;;16.93;100.00;99011.88;4855847;29;19959;-71
2022/04/28 06:13:18;;;;;;;;;;;;;;;16.87;100.00;99017.19;4863574;29;20251;-69
2022/04/28 06:16:04;;;;;;;;;;;;;;;16.67;100.00;99010.63;4866180;29;19953;-70
2022/04/28 06:18:37;;;;;;;;;;;;;;;16.26;100.00;99013.44;4850063;29;19950;-70
2022/04/28 06:21:24;;;;;;;;;;;;;;;16.16;100.00;99008.69;4865437;29;19977;-71
2022/04/28 06:23:51;;;;;;;;;;;;;;;15.90;100.00;99008.53;4866505;29;20344;-71
2022/04/28 06:26:19;;;;;;;;;;;;;;;15.59;100.00;99011.22;4868830;29;19946;-70
2022/04/28 06:28:46;;;;;;;;;;;;;;;15.35;100.00;99011.34;4861363;29;19954;-70
2022/04/28 06:31:14;;;;;;;;;;;;;;;15.72;100.00;99008.72;4855355;29;19957;-70
2022/04/28 06:33:51;;;;;;;;;;;;;;;15.31;100.00;99013.41;4884372;29;19958;-70
2022/04/28 06:36:26;;;;;;;;;;;;;;;15.58;100.00;99017.25;4868933;29;20236;-70
2022/04/28 06:38:56;;;;;;;;;;;;;;;15.24;100.00;99019.88;4868988;29;19951;-70
2022/04/28 06:41:24;;;;;;;;;;;;;;;15.36;100.00;99012.94;4868406;29;19957;-70
2022/04/28 06:43:56;;;;;;;;;;;;;;;15.16;100.00;99017.53;4868153;29;20008;-70
2022/04/28 06:46:29;;;;;;;;;;;;;;;15.41;100.00;99024.59;4884789;29;19955;-70
2022/04/28 06:49:33;;;;;;;;;;;;;;;15.37;100.00;99020.19;4808820;29;19952;-70
2022/04/28 06:52:19;;;;;;;;;;;;;;;15.64;100.00;99024.06;4880009;29;19980;-71
2022/04/28 06:55:05;;;;;;;;;;;;;;;15.45;100.00;99027.44;4868077;29;19956;-70
2022/04/28 06:57:34;;;;;;;;;;;;;;;15.15;100.00;99025.16;4868048;29;19970;-70
2022/04/28 07:00:14;;;;;;;;;;;;;;;15.23;100.00;99031.56;4862335;29;19949;-71
2022/04/28 07:02:47;;;;;;;;;;;;;;;15.41;100.00;99033.03;4849279;29;19977;-70
2022/04/28 07:05:42;;;;;;;;;;;;;;;15.31;100.00;99031.09;4849086;29;19943;-70
2022/04/28 07:08:11;;;;;;;;;;;;;;;15.30;100.00;99043.59;4849889;29;19951;-70
2022/04/28 07:10:44;;;;;;;;;;;;;;;15.34;100.00;99049.19;4849815;29;19955;-70
2022/04/28 07:13:12;;;;;;;;;;;;;;;15.39;100.00;99046.75;4865831;29;19952;-70
2022/04/28 07:16:01;;;;;;;;;;;;;;;15.42;100.00;99045.13;4869234;29;19981;-70
2022/04/28 07:18:47;;;;;;;;;;;;;;;15.37;100.00;99049.19;4882992;29;19961;-70
2022/04/28 07:21:14;;;;;;;;;;;;;;;15.30;100.00;99048.44;4868197;29;19951;-70
2022/04/28 07:24:14;;;;;;;;;;;;;;;15.38;100.00;99052.81;4883413;29;19960;-70
2022/04/28 07:26:42;;;;;;;;;;;;;;;15.31;100.00;99053.63;4867336;29;19956;-70
2022/04/28 07:29:10;;;;;;;;;;;;;;;14.88;100.00;99055.88;4868035;29;19949;-70
2022/04/28 07:31:56;;;;;;;;;;;;;;;15.24;100.00;99055.69;4884705;29;19953;-70
2022/04/28 07:34:42;;;;;;;;;;;;;;;15.41;100.00;99057.59;4883067;29;19954;-70
2022/04/28 07:37:28;;;;;;;;;;;;;;;15.36;100.00;99050.38;4883677;29;19962;-70
2022/04/28 07:40:14;;;;;;;;;;;;;;;15.14;100.00;99065.81;4883852;29;19953;-70
2022/04/28 07:42:48;;;;;;;;;;;;;;;14.97;100.00;99070.31;4867086;29;19978;-70
2022/04/28 07:45:15;;;;;;;;;;;;;;;15.09;100.00;99069.03;4866631;29;20248;-71
2022/04/28 07:47:45;;;;;;;;;;;;;;;15.19;100.00;99075.84;4867805;29;19946;-71
2022/04/28 07:50:18;;;;;;;;;;;;;;;15.35;100.00;99073.34;4852959;29;19955;-70
2022/04/28 07:52:46;;;;;;;;;;;;;;;15.05;100.00;99079.53;4867231;29;19949;-70
2022/04/28 07:55:15;;;;;;;;;;;;;;;15.17;100.00;99078.25;4867334;29;19957;-70
2022/04/28 07:57:45;;;;;;;;;;;;;;;15.32;100.00;99077.00;4848787;29;19948;-70
2022/04/28 08:00:22;;;;;;;;;;;;;;;15.27;100.00;99077.41;4861498;29;20247;-70
2022/04/28 08:02:53;;;;;;;;;;;;;;;15.25;100.00;99082.66;4875122;29;20382;-70
2022/04/28 08:05:26;;;;;;;;;;;;;;;15.09;100.00;99081.13;4851932;29;20464;-70
2022/04/28 08:07:54;;;;;;;;;;;;;;;15.22;100.00;99077.84;4866254;29;19950;-70
2022/04/28 08:10:21;;;;;;;;;;;;;;;15.43;100.00;99077.75;4867403;29;19951;-70
2022/04/28 08:12:48;;;;;;;;;;;;;;;15.43;100.00;99077.75;4882763;29;19953;-70
2022/04/28 08:15:54;;;;;;;;;;;;;;;15.64;100.00;99077.63;4807305;29;19955;-70
2022/04/28 08:18:24;;;;;;;;;;;;;;;15.64;100.00;99088.91;4857762;29;19955;-70
2022/04/28 08:20:52;;;;;;;;;;;;;;;15.89;100.00;99092.38;4866728;29;20339;-70
2022/04/28 08:23:20;;;;;;;;;;;;;;;15.93;100.00;99086.69;4866505;29;19971;-70
2022/04/28 08:25:47;;;;;;;;;;;;;;;16.15;100.00;99091.75;4867196;29;19951;-70
2022/04/28 08:28:15;;;;;;;;;;;;;;;15.88;100.00;99087.13;4867167;29;19954;-70
2022/04/28 08:30:43;;;;;;;;;;;;;;;16.06;100.00;99088.63;4866737;29;19954;-70
2022/04/28 08:33:10;;;;;;;;;;;;;;;16.00;100.00;99087.44;4866479;29;19945;-70
2022/04/28 08:35:37;;;;;;;;;;;;;;;16.11;100.00;99091.00;4866667;29;20372;-70
2022/04/28 08:38:05;;;;;;;;;;;;;;;16.18;100.00;99088.09;4866701;29;20241;-70
2022/04/28 08:40:33;;;;;;;;;;;;;;;16.42;100.00;99077.81;4866327;29;20343;-70
2022/04/28 08:43:05;;;;;;;;;;;;;;;16.30;100.00;99076.31;4865061;29;19968;-70
2022/04/28 08:45:39;;;;;;;;;;;;;;;16.37;100.00;99089.53;4866525;29;19948;-70
2022/04/28 08:48:24;;;;;;;;;;;;;;;16.39;100.00;99096.38;4866846;29;19955;-70
2022/04/28 08:51:27;;;;;;;;;;;;;;;16.38;100.00;99099.63;4870422;29;20244;-70
2022/04/28 08:53:59;;;;;;;;;;;;;;;16.40;100.00;99095.16;4849866;29;19949;-70
2022/04/28 08:56:27;;;;;;;;;;;;;;;16.42;100.00;99098.38;4863315;29;20338;-70
2022/04/28 08:59:00;;;;;;;;;;;;;;;16.52;100.00;99099.50;4833175;29;20254;-70
2022/04/28 09:01:28;;;;;;;;;;;;;;;16.69;100.00;99095.72;4848139;29;19946;-70
2022/04/28 09:04:15;;;;;;;;;;;;;;;16.92;100.00;99104.31;4880610;29;19968;-70
2022/04/28 09:07:08;;;;;;;;;;;;;;;16.93;100.00;99103.09;4854006;29;20335;-70
2022/04/28 09:09:41;;;;;;;;;;;;;;;16.96;100.00;99095.81;4881872;29;19962;-70
2022/04/28 09:12:27;;;;;;;;;;;;;;;16.68;100.00;99107.41;4881346;29;19962;-70
2022/04/28 09:15:26;;;;;;;;;;;;;;;16.79;100.00;99103.28;4869912;29;19951;-70
2022/04/28 09:18:04;;;;;;;;;;;;;;;16.92;100.00;99103.53;4866689;29;19947;-70
2022/04/28 09:20:31;;;;;;;;;;;;;;;16.39;100.00;99102.03;4882042;29;19949;-70
2022/04/28 09:23:03;;;;;;;;;;;;;;;16.33;100.00;99102.91;4881355;29;19977;-70
2022/04/28 09:25:42;;;;;;;;;;;;;;;16.41;100.00;99110.06;4866016;29;19980;-70
2022/04/28 09:28:10;;;;;;;;;;;;;;;16.39;100.00;99104.84;4866272;29;20340;-70
2022/04/28 09:30:50;;;;;;;;;;;;;;;16.42;100.00;99103.22;4865889;29;19952;-70
2022/04/28 09:33:41;;;;;;;;;;;;;;;16.60;100.00;99089.75;4846713;29;20259;-70
2022/04/28 09:36:09;;;;;;;;;;;;;;;16.31;100.00;99097.66;4882443;29;19949;-70
2022/04/28 09:38:53;;;;;;;;;;;;;;;16.55;100.00;99103.53;4866305;29;19957;-70
2022/04/28 09:44:12;;;;;;;;;;;;;;;16.84;100.00;99096.34;4865221;29;19966;-70
2022/04/28 09:46:46;;;;;;;;;;;;;;;16.96;100.00;99098.63;4866444;29;19943;-70
2022/04/28 09:49:17;;;;;;;;;;;;;;;17.01;100.00;99098.19;4881998;29;19951;-70
2022/04/28 09:52:09;;;;;;;;;;;;;;;17.06;100.00;99104.19;4880873;29;19950;-70
2022/04/28 09:54:53;;;;;;;;;;;;;;;17.00;100.00;99102.22;4852480;29;19958;-71
2022/04/28 09:57:22;;;;;;;;;;;;;;;17.09;100.00;99099.72;4850048;29;19969;-71
2022/04/28 09:59:54;;;;;;;;;;;;;;;17.17;100.00;99095.53;4854042;29;19962;-70
2022/04/28 10:02:22;;;;;;;;;;;;;;;17.42;100.00;99095.22;4885628;29;19956;-70
2022/04/28 10:04:50;;;;;;;;;;;;;;;17.31;100.00;99105.88;4868313;29;19970;-70
2022/04/28 10:07:38;;;;;;;;;;;;;;;17.22;100.00;99097.91;4884394;29;20374;-70
2022/04/28 10:10:07;;;;;;;;;;;;;;;17.30;94.84;99096.59;4869181;29;19959;-71
2022/04/28 10:12:35;;;;;;;;;;;;;;;17.25;95.44;99097.06;4885999;29;19952;-70
2022/04/28 10:15:28;;;;;;;;;;;;;;;17.07;92.97;99099.31;4868585;29;19958;-70
2022/04/28 10:17:59;;;;;;;;;;;;;;;16.95;94.26;99094.19;4869123;29;20284;-70
2022/04/28 10:20:33;;;;;;;;;;;;;;;17.30;100.00;99090.94;4869001;29;19947;-70
2022/04/28 10:32:22;;;;;;;;;;;;;;;17.46;97.21;99091.13;4867984;29;20406;-70
2022/04/28 10:32:25;;;;;;;;;;;;;;;17.38;89.57;99095.28;4885648;29;19954;-70
2022/04/28 10:35:05;;;;;;;;;;;;;;;17.47;89.19;99092.72;4884523;29;19950;-70
2022/04/28 10:37:35;;;;;;;;;;;;;;;17.23;91.56;99098.72;4868622;29;20352;-70
2022/04/28 10:40:03;;;;;;;;;;;;;;;17.03;88.93;99093.72;4884939;29;19947;-70
2022/04/28 10:42:34;;;;;;;;;;;;;;;17.08;86.94;99096.06;4884580;29;19972;-70
2022/04/28 10:45:04;;;;;;;;;;;;;;;17.06;85.17;99089.25;4884427;29;19978;-70
2022/04/28 10:47:38;;;;;;;;;;;;;;;17.27;85.32;99088.16;4884538;29;19955;-70
2022/04/28 10:50:22;;;;;;;;;;;;;;;17.37;88.55;99088.03;4885133;29;19946;-70
2022/04/28 10:52:55;;;;;;;;;;;;;;;17.35;82.44;99096.13;4884997;29;19959;-70
2022/04/28 10:55:30;;;;;;;;;;;;;;;17.16;86.47;99095.97;4868328;29;19958;-70
2022/04/28 10:58:17;;;;;;;;;;;;;;;17.36;100.00;99089.22;4883117;29;19952;-70
2022/04/28 11:00:51;;;;;;;;;;;;;;;17.28;87.04;99079.25;4883587;29;19976;-70
2022/04/28 11:03:36;;;;;;;;;;;;;;;17.30;87.63;99081.66;4883021;29;19980;-71
2022/04/28 11:06:11;;;;;;;;;;;;;;;17.12;77.06;99070.56;4881837;29;19949;-70
2022/04/28 11:08:43;;;;;;;;;;;;;;;17.31;78.94;99088.94;4884843;29;19948;-70
2022/04/28 11:11:12;;;;;;;;;;;;;;;17.12;80.03;99081.09;4884598;29;19955;-70
2022/04/28 11:13:43;;;;;;;;;;;;;;;17.18;92.97;99077.38;4883792;29;19958;-70
2022/04/28 11:16:11;;;;;;;;;;;;;;;17.59;82.61;99086.53;4884426;29;19948;-70
2022/04/28 11:18:39;;;;;;;;;;;;;;;17.58;92.47;99070.78;4884231;29;19951;-70
2022/04/28 11:21:07;;;;;;;;;;;;;;;17.58;85.51;99079.25;4884021;29;19949;-70
2022/04/28 11:23:40;;;;;;;;;;;;;;;17.59;82.80;99071.59;4882480;29;20424;-70
2022/04/28 11:26:37;;;;;;;;;;;;;;;17.67;85.30;99070.25;4859857;29;19955;-70
2022/04/28 11:29:43;;;;;;;;;;;;;;;17.67;88.67;99078.75;4843365;29;19952;-70
2022/04/28 11:32:11;;;;;;;;;;;;;;;17.77;97.99;99068.50;4844949;29;19955;-71
2022/04/28 11:34:39;;;;;;;;;;;;;;;17.70;80.54;99064.53;4862328;29;20335;-71
2022/04/28 11:37:19;;;;;;;;;;;;;;;17.81;80.16;99072.06;4881571;29;19957;-70
2022/04/28 11:39:47;;;;;;;;;;;;;;;17.92;81.25;99073.53;4878076;29;19957;-70
2022/04/28 11:42:18;;;;;;;;;;;;;;;17.73;75.95;99077.84;4874435;29;19982;-70
2022/04/28 11:44:52;;;;;;;;;;;;;;;17.90;92.05;99075.19;4881283;29;19971;-70
2022/04/28 11:47:20;;;;;;;;;;;;;;;18.10;81.98;99073.22;4881819;29;19961;-70
2022/04/28 11:49:50;;;;;;;;;;;;;;;18.25;85.92;99071.75;4881626;29;20212;-70
2022/04/28 11:55:33;;;;;;;;;;;;;;;18.30;78.86;99062.75;4863518;29;20361;-70
2022/04/28 11:58:01;;;;;;;;;;;;;;;18.26;77.96;99076.19;4863181;29;19976;-70
2022/04/28 12:00:35;;;;;;;;;;;;;;;18.02;75.66;99069.69;4864870;29;19961;-71
2022/04/28 12:03:03;;;;;;;;;;;;;;;18.12;80.83;99071.56;4864871;29;20034;-71
2022/04/28 12:05:32;;;;;;;;;;;;;;;18.14;90.31;99063.44;4864304;29;19973;-70
2022/04/28 12:08:00;;;;;;;;;;;;;;;18.23;89.42;99063.69;4864811;29;20222;-70
2022/04/28 12:16:00;;;;;;;;;;;;;;;17.98;86.11;99068.16;4864140;29;19954;-70
2022/04/28 12:21:24;;;;;;;;;;;;;;;18.04;82.37;99072.91;4863217;29;20232;-70
2022/04/28 12:23:57;;;;;;;;;;;;;;;17.82;82.48;99068.03;4860268;29;20442;-70
2022/04/28 12:26:25;;;;;;;;;;;;;;;18.09;91.96;99055.44;4859726;29;19964;-70
2022/04/28 12:28:54;;;;;;;;;;;;;;;18.17;86.97;99056.91;4863174;29;20246;-70
2022/04/28 12:31:28;;;;;;;;;;;;;;;17.94;93.40;99056.91;4864370;29;19972;-70
2022/04/28 12:34:14;;;;;;;;;;;;;;;17.92;91.70;99050.06;4849697;29;19950;-70
2022/04/28 12:36:48;;;;;;;;;;;;;;;18.02;94.85;99051.94;4845974;29;20236;-70
2022/04/28 12:39:20;;;;;;;;;;;;;;;17.91;83.20;99059.78;4861692;29;19989;-70
2022/04/28 12:41:48;;;;;;;;;;;;;;;18.04;84.31;99046.63;4859466;29;19956;-70
2022/04/28 12:44:16;;;;;;;;;;;;;;;18.12;89.87;99051.75;4862592;29;20274;-70
2022/04/28 12:46:45;;;;;;;;;;;;;;;18.20;88.70;99046.75;4854311;29;19957;-71
2022/04/28 12:49:13;;;;;;;;;;;;;;;18.33;84.64;99039.25;4864207;29;19959;-70
2022/04/28 12:51:44;;;;;;;;;;;;;;;18.39;90.36;99049.63;4864649;29;19977;-70
2022/04/28 12:54:13;;;;;;;;;;;;;;;18.26;82.18;99045.84;4863237;29;19970;-70
2022/04/28 12:56:43;;;;;;;;;;;;;;;18.30;83.66;99049.41;4859628;29;19955;-71
2022/04/28 12:59:13;;;;;;;;;;;;;;;18.29;77.16;99039.31;4862454;29;20069;-71
2022/04/28 13:01:41;;;;;;;;;;;;;;;18.17;84.39;99034.25;4854847;29;19954;-71
2022/04/28 13:04:29;;;;;;;;;;;;;;;18.26;82.84;99028.06;4862967;29;19977;-71
2022/04/28 13:06:56;;;;;;;;;;;;;;;18.14;82.00;99034.34;4861866;29;20330;-72
2022/04/28 13:09:29;;;;;;;;;;;;;;;18.07;79.16;99028.81;4863497;29;19949;-71
2022/04/28 13:11:57;;;;;;;;;;;;;;;18.18;84.71;99026.56;4858414;29;19951;-71
2022/04/28 13:14:24;;;;;;;;;;;;;;;18.34;77.84;99032.34;4861421;29;19956;-71
2022/04/28 13:16:52;;;;;;;;;;;;;;;18.32;83.61;99027.13;4863480;29;19950;-72
2022/04/28 13:19:20;;;;;;;;;;;;;;;18.32;85.22;99020.66;4862812;29;20030;-71
2022/04/28 13:21:47;;;;;;;;;;;;;;;18.32;85.03;99024.28;4860596;29;19951;-71
2022/04/28 13:24:15;;;;;;;;;;;;;;;18.32;84.50;99024.28;4862738;29;20251;-72
2022/04/28 13:26:42;;;;;;;;;;;;;;;18.28;80.49;99022.75;4863025;29;19980;-72
2022/04/28 13:29:10;;;;;;;;;;;;;;;18.38;83.49;99018.94;4864172;29;19957;-71
2022/04/28 13:31:40;;;;;;;;;;;;;;;18.30;83.01;99018.25;4879156;29;19957;-72
2022/04/28 13:34:07;;;;;;;;;;;;;;;18.09;81.10;99015.81;4863189;29;19956;-71
2022/04/28 13:36:34;;;;;;;;;;;;;;;18.16;81.50;99012.06;4863566;29;19957;-71
2022/04/28 13:39:02;;;;;;;;;;;;;;;18.25;89.39;99003.78;4858411;29;19967;-72
2022/04/28 13:41:29;;;;;;;;;;;;;;;18.27;86.12;99009.81;4861818;29;20240;-71
2022/04/28 13:43:56;;;;;;;;;;;;;;;18.08;84.60;99002.09;4859412;29;19950;-71
2022/04/28 13:46:24;;;;;;;;;;;;;;;18.11;85.31;99006.88;4862441;29;19967;-71
2022/04/28 13:48:51;;;;;;;;;;;;;;;18.12;83.12;98997.19;4879242;29;20245;-71
2022/04/28 13:51:18;;;;;;;;;;;;;;;18.23;82.48;99006.25;4866663;29;20238;-71
2022/04/28 13:53:46;;;;;;;;;;;;;;;18.34;81.37;98999.16;4867252;29;19983;-71
2022/04/28 13:56:13;;;;;;;;;;;;;;;18.30;85.07;98992.78;4866584;29;19955;-71
2022/04/28 13:58:40;;;;;;;;;;;;;;;18.00;84.53;98992.09;4867524;29;19964;-71
2022/04/28 14:01:08;;;;;;;;;;;;;;;18.02;90.54;98984.00;4867360;29;19952;-71
2022/04/28 14:03:35;;;;;;;;;;;;;;;18.16;82.75;98986.59;4867513;29;19955;-71
2022/04/28 14:06:05;;;;;;;;;;;;;;;17.88;86.61;98987.06;4867167;29;19975;-71
2022/04/28 14:08:32;;;;;;;;;;;;;;;17.96;86.02;98977.22;4867247;29;19946;-71
2022/04/28 14:11:00;;;;;;;;;;;;;;;18.01;88.62;98983.22;4867307;29;19957;-71
2022/04/28 14:13:28;;;;;;;;;;;;;;;18.11;89.11;98981.41;4864234;29;19949;-71
2022/04/28 14:15:55;;;;;;;;;;;;;;;18.27;84.46;98984.34;4849106;29;20246;-71
2022/04/28 14:18:23;;;;;;;;;;;;;;;18.10;87.83;98976.97;4848960;29;19953;-71
2022/04/28 14:20:51;;;;;;;;;;;;;;;18.12;88.31;98978.13;4856443;29;20266;-71
2022/04/28 14:23:25;;;;;;;;;;;;;;;18.03;85.15;98982.75;4847488;29;19950;-71
2022/04/28 14:25:53;;;;;;;;;;;;;;;18.13;87.58;98973.28;4848043;29;19965;-71
2022/04/28 14:28:22;;;;;;;;;;;;;;;18.01;84.01;98968.25;4859684;29;19964;-71
2022/04/28 14:30:49;;;;;;;;;;;;;;;18.05;86.50;98969.78;4865582;29;19947;-71
2022/04/28 14:33:35;;;;;;;;;;;;;;;18.09;91.13;98966.91;4864753;29;19948;-71
2022/04/28 14:36:02;;;;;;;;;;;;;;;18.10;97.59;98968.47;4863731;29;19952;-71
2022/04/28 14:38:30;;;;;;;;;;;;;;;17.97;87.63;98976.81;4863727;29;19953;-71
2022/04/28 14:40:57;;;;;;;;;;;;;;;18.05;89.50;98975.44;4849593;29;20252;-71
2022/04/28 14:43:25;;;;;;;;;;;;;;;17.72;86.75;98970.78;4858200;29;19955;-71
2022/04/28 14:45:52;;;;;;;;;;;;;;;17.74;90.22;98971.16;4863961;29;20253;-71
2022/04/28 14:48:19;;;;;;;;;;;;;;;17.73;93.41;98964.69;4864441;29;19953;-71
2022/04/28 14:53:41;;;;;;;;;;;;;;;17.75;90.69;98966.28;4865125;29;19970;-71
2022/04/28 14:56:08;;;;;;;;;;;;;;;17.83;95.52;98967.75;4865610;29;19956;-71
2022/04/28 14:58:38;;;;;;;;;;;;;;;17.87;96.16;98968.50;4865578;29;20347;-72
2022/04/28 15:01:09;;;;;;;;;;;;;;;17.77;89.24;98970.28;4850496;29;20033;-72
2022/04/28 15:03:37;;;;;;;;;;;;;;;17.88;95.07;98970.09;4865009;29;19965;-71
2022/04/28 15:06:05;;;;;;;;;;;;;;;17.91;98.88;98960.75;4860940;29;20263;-71
2022/04/28 15:08:32;;;;;;;;;;;;;;;17.88;92.99;98959.59;4863022;29;19962;-71
2022/04/28 15:10:59;;;;;;;;;;;;;;;17.99;98.20;98959.41;4864627;29;20368;-71
2022/04/28 15:13:27;;;;;;;;;;;;;;;17.87;94.97;98958.00;4865019;29;19981;-71
2022/04/28 15:15:54;;;;;;;;;;;;;;;17.88;97.93;98961.59;4865445;29;19951;-71
2022/04/28 15:18:22;;;;;;;;;;;;;;;17.89;94.45;98966.03;4865416;29;19948;-71
2022/04/28 15:20:49;;;;;;;;;;;;;;;17.95;93.51;98959.44;4849675;29;19951;-71
2022/04/28 15:23:16;;;;;;;;;;;;;;;17.73;94.15;98964.69;4864936;29;19960;-71
2022/04/28 15:25:45;;;;;;;;;;;;;;;17.73;98.18;98960.28;4864801;29;20289;-72
2022/04/28 15:28:13;;;;;;;;;;;;;;;17.62;98.84;98961.25;4864072;29;19949;-71
2022/04/28 15:30:40;;;;;;;;;;;;;;;17.69;100.00;98957.50;4861453;29;19959;-71
2022/04/28 15:33:08;;;;;;;;;;;;;;;17.60;97.02;98951.59;4863106;29;20372;-71
2022/04/28 15:35:35;;;;;;;;;;;;;;;17.53;100.00;98951.72;4864445;29;19954;-71
2022/04/28 15:38:02;;;;;;;;;;;;;;;17.58;99.04;98951.22;4864815;29;19961;-71
2022/04/28 15:40:30;;;;;;;;;;;;;;;17.50;99.25;98952.53;4864082;29;19956;-71
2022/04/28 15:42:57;;;;;;;;;;;;;;;17.52;100.00;98942.41;4864671;29;19956;-71
2022/04/28 15:45:25;;;;;;;;;;;;;;;17.60;100.00;98934.63;4864182;29;19965;-70
2022/04/28 15:47:52;;;;;;;;;;;;;;;17.61;100.00;98945.50;4856329;29;19950;-70
2022/04/28 15:50:20;;;;;;;;;;;;;;;17.57;100.00;98950.41;4859007;29;19958;-71
2022/04/28 15:52:48;;;;;;;;;;;;;;;17.64;100.00;98943.84;4849241;29;19954;-72
2022/04/28 15:55:16;;;;;;;;;;;;;;;17.52;99.26;98944.44;4863938;29;19964;-71
2022/04/28 15:57:44;;;;;;;;;;;;;;;17.33;100.00;98939.47;4865168;29;19959;-71
2022/04/28 16:00:13;;;;;;;;;;;;;;;17.40;99.55;98936.53;4864935;29;20356;-71
2022/04/28 16:02:40;;;;;;;;;;;;;;;17.44;97.23;98935.25;4859035;29;20329;-71
2022/04/28 16:05:08;;;;;;;;;;;;;;;17.29;97.62;98950.03;4862993;29;19962;-71
2022/04/28 16:07:36;;;;;;;;;;;;;;;17.32;97.99;98949.16;4865011;29;20083;-71
2022/04/28 16:10:03;;;;;;;;;;;;;;;17.27;100.00;98933.50;4860613;29;19950;-72
2022/04/28 16:12:31;;;;;;;;;;;;;;;17.28;100.00;98934.28;4864410;29;19957;-71
2022/04/28 16:14:59;;;;;;;;;;;;;;;17.25;100.00;98935.94;4856729;29;19951;-71
2022/04/28 16:17:26;;;;;;;;;;;;;;;17.23;100.00;98932.75;4861796;29;19954;-72
2022/04/28 16:19:54;;;;;;;;;;;;;;;17.22;100.00;98931.16;4864134;29;19950;-71
2022/04/28 16:22:21;;;;;;;;;;;;;;;17.16;100.00;98935.69;4857980;29;19956;-72
2022/04/28 16:24:55;;;;;;;;;;;;;;;17.11;99.82;98938.19;4863424;29;19952;-71
2022/04/28 16:27:23;;;;;;;;;;;;;;;17.12;100.00;98934.16;4864029;29;19964;-71
2022/04/28 16:29:51;;;;;;;;;;;;;;;17.02;100.00;98921.75;4855696;29;19950;-71
2022/04/28 16:32:19;;;;;;;;;;;;;;;17.03;100.00;98924.16;4860608;29;19951;-71
2022/04/28 16:34:46;;;;;;;;;;;;;;;16.99;100.00;98929.06;4863150;29;20214;-72
2022/04/28 16:37:17;;;;;;;;;;;;;;;17.06;100.00;98937.44;4877538;29;20350;-72
2022/04/28 16:39:44;;;;;;;;;;;;;;;17.08;100.00;98925.72;4863408;29;19957;-71
2022/04/28 16:42:12;;;;;;;;;;;;;;;17.04;100.00;98930.63;4862265;29;20354;-71
2022/04/28 16:44:39;;;;;;;;;;;;;;;16.89;100.00;98932.84;4858487;29;19948;-71
2022/04/28 16:47:07;;;;;;;;;;;;;;;16.87;100.00;98940.16;4851794;29;20267;-71
2022/04/28 16:49:34;;;;;;;;;;;;;;;16.93;99.91;98932.78;4863892;29;19956;-71
2022/04/28 16:52:02;;;;;;;;;;;;;;;16.84;100.00;98938.16;4864436;29;19969;-71
2022/04/28 16:54:29;;;;;;;;;;;;;;;16.75;100.00;98937.91;4863648;29;20264;-72
2022/04/28 16:56:58;;;;;;;;;;;;;;;16.75;100.00;98935.06;4864231;29;19948;-71
2022/04/28 16:59:26;;;;;;;;;;;;;;;16.72;100.00;98939.53;4864600;29;19957;-71
2022/04/28 17:01:54;;;;;;;;;;;;;;;16.71;100.00;98945.59;4863693;29;19947;-71
2022/04/28 17:04:25;;;;;;;;;;;;;;;16.68;100.00;98941.59;4859768;29;19987;-71
2022/04/28 17:06:56;;;;;;;;;;;;;;;16.66;100.00;98946.06;4862617;29;20275;-71
2022/04/28 17:09:24;;;;;;;;;;;;;;;16.62;100.00;98948.94;4851003;29;19966;-71
2022/04/28 17:11:56;;;;;;;;;;;;;;;16.46;100.00;98948.69;4864499;29;20257;-71
2022/04/28 17:14:24;;;;;;;;;;;;;;;16.45;100.00;98947.13;4863244;29;19953;-71
2022/04/28 17:16:52;;;;;;;;;;;;;;;16.40;100.00;98950.41;4863871;29;19950;-71
2022/04/28 17:19:20;;;;;;;;;;;;;;;16.42;100.00;98953.59;4863570;29;19956;-72
2022/04/28 17:21:47;;;;;;;;;;;;;;;16.35;100.00;98970.63;4861314;29;20411;-71
2022/04/28 17:24:16;;;;;;;;;;;;;;;16.38;100.00;98970.56;4862245;29;19957;-71
2022/04/28 17:26:45;;;;;;;;;;;;;;;16.27;100.00;98966.25;4863015;29;19972;-71
2022/04/28 17:29:14;;;;;;;;;;;;;;;16.20;100.00;98975.63;4859060;29;19958;-71
2022/04/28 17:31:41;;;;;;;;;;;;;;;16.20;100.00;98975.63;4869716;29;19950;-71
2022/04/28 17:34:09;;;;;;;;;;;;;;;16.09;100.00;98977.72;4862323;29;19955;-71
2022/04/28 17:36:37;;;;;;;;;;;;;;;16.04;100.00;98983.03;4863415;29;19949;-71
2022/04/28 17:39:04;;;;;;;;;;;;;;;15.98;100.00;98979.06;4863607;29;20342;-71
2022/04/28 17:41:32;;;;;;;;;;;;;;;15.99;100.00;98981.44;4863889;29;19954;-71
2022/04/28 17:44:03;;;;;;;;;;;;;;;15.92;100.00;98977.91;4863865;29;19953;-71
2022/04/28 17:46:31;;;;;;;;;;;;;;;15.89;100.00;98985.19;4863089;29;19972;-71
2022/04/28 17:49:00;;;;;;;;;;;;;;;15.90;100.00;98989.59;4864520;29;20272;-71
2022/04/28 17:51:43;;;;;;;;;;;;;;;15.81;100.00;98988.47;4862265;29;19954;-71
2022/04/28 17:54:12;;;;;;;;;;;;;;;15.83;100.00;99003.78;4863127;29;19975;-72
2022/04/28 18:02:11;;;;;;;;;;;;;;;15.52;100.00;99004.84;4863100;29;19958;-71
2022/04/28 18:04:39;;;;;;;;;;;;;;;15.48;100.00;99004.06;4863508;29;20245;-71
2022/04/28 18:07:08;;;;;;;;;;;;;;;15.53;100.00;99009.22;4863028;29;19966;-71
2022/04/28 18:09:35;;;;;;;;;;;;;;;15.45;100.00;99005.69;4864282;29;19954;-72
2022/04/28 18:12:03;;;;;;;;;;;;;;;15.34;100.00;99006.91;4856581;29;19951;-71
2022/04/28 18:14:31;;;;;;;;;;;;;;;15.31;100.00;99014.19;4863841;29;19957;-71
2022/04/28 18:16:58;;;;;;;;;;;;;;;15.33;100.00;99013.78;4855351;29;20219;-71
2022/04/28 18:19:26;;;;;;;;;;;;;;;15.25;100.00;99020.69;4866182;29;19950;-71